createdAt,value
2019-02-26T00:00:59.025Z,21.52
2019-02-26T00:03:35.245Z,21.52
2019-02-26T00:06:09.061Z,21.52
2019-02-26T00:08:47.230Z,21.51
2019-02-26T00:11:19.223Z,21.54
2019-02-26T00:13:55.111Z,21.50
2019-02-26T00:16:29.435Z,21.49
2019-02-26T00:19:05.558Z,21.48
2019-02-26T00:21:40.010Z,21.47
2019-02-26T00:24:14.705Z,21.46
2019-02-26T00:26:49.145Z,21.47
2019-02-26T00:29:24.956Z,21.45
2019-02-26T00:31:59.006Z,21.47
2019-02-26T00:34:34.608Z,21.45
2019-02-26T00:37:08.964Z,21.44
2019-02-26T00:39:43.119Z,21.41
2019-02-26T00:42:21.527Z,21.41
2019-02-26T00:44:55.941Z,21.42
2019-02-26T00:47:33.671Z,21.42
2019-02-26T00:50:07.313Z,21.40
2019-02-26T00:52:42.231Z,21.41
2019-02-26T00:55:16.584Z,21.39
2019-02-26T00:57:51.015Z,21.39
2019-02-26T01:00:26.822Z,21.39
2019-02-26T01:03:01.448Z,21.38
2019-02-26T01:05:36.869Z,21.37
2019-02-26T01:08:13.315Z,21.37
2019-02-26T01:10:47.827Z,21.38
2019-02-26T01:13:25.577Z,21.37
2019-02-26T01:15:59.336Z,21.35
2019-02-26T01:18:33.835Z,21.33
2019-02-26T01:21:08.310Z,21.32
2019-02-26T01:23:42.810Z,21.30
2019-02-26T01:26:17.142Z,21.29
2019-02-26T01:28:53.575Z,21.28
2019-02-26T01:31:29.074Z,21.27
2019-02-26T01:34:03.428Z,21.27
2019-02-26T01:36:40.398Z,21.27
2019-02-26T01:39:16.237Z,21.26
2019-02-26T01:41:53.233Z,21.26
2019-02-26T01:44:32.309Z,21.26
2019-02-26T01:47:04.748Z,21.24
2019-02-26T01:49:39.779Z,21.25
2019-02-26T01:52:15.071Z,21.24
2019-02-26T01:54:51.354Z,21.24
2019-02-26T01:57:27.763Z,21.21
2019-02-26T02:00:06.452Z,21.21
2019-02-26T02:02:39.842Z,21.21
2019-02-26T02:05:14.156Z,21.23
2019-02-26T02:07:51.825Z,21.21
2019-02-26T02:10:25.369Z,21.21
2019-02-26T02:13:02.049Z,21.21
2019-02-26T02:15:37.849Z,21.21
2019-02-26T02:18:12.488Z,21.18
2019-02-26T02:20:46.536Z,21.17
2019-02-26T02:23:21.247Z,21.17
2019-02-26T02:25:59.761Z,21.17
2019-02-26T02:28:33.822Z,21.15
2019-02-26T02:31:08.327Z,21.15
2019-02-26T02:33:42.419Z,21.13
2019-02-26T02:36:17.732Z,21.13
2019-02-26T02:38:52.485Z,21.13
2019-02-26T02:41:26.704Z,21.12
2019-02-26T02:44:00.993Z,21.11
2019-02-26T02:46:36.632Z,21.10
2019-02-26T02:49:13.261Z,21.10
2019-02-26T02:51:47.621Z,21.09
2019-02-26T02:54:26.179Z,21.08
2019-02-26T02:57:02.409Z,21.08
2019-02-26T02:59:41.699Z,21.07
2019-02-26T03:02:17.348Z,21.07
2019-02-26T03:04:50.501Z,21.06
2019-02-26T03:07:28.820Z,21.06
2019-02-26T03:10:04.529Z,21.05
2019-02-26T03:12:38.659Z,21.06
2019-02-26T03:15:13.610Z,21.06
2019-02-26T03:17:47.786Z,21.05
2019-02-26T03:20:24.194Z,21.04
2019-02-26T03:22:58.932Z,20.96
2019-02-26T03:25:32.967Z,20.93
2019-02-26T03:28:07.081Z,20.95
2019-02-26T03:30:44.233Z,20.95
2019-02-26T03:33:19.809Z,20.93
2019-02-26T03:35:53.766Z,20.88
2019-02-26T03:38:28.886Z,20.84
2019-02-26T03:41:03.719Z,20.80
2019-02-26T03:43:39.853Z,20.82
2019-02-26T03:46:14.929Z,20.83
2019-02-26T03:48:49.405Z,20.81
2019-02-26T03:51:23.504Z,20.82
2019-02-26T03:53:58.697Z,20.79
2019-02-26T03:56:32.988Z,20.79
2019-02-26T03:59:09.557Z,20.76
2019-02-26T04:01:43.301Z,20.77
2019-02-26T04:04:20.450Z,20.75
2019-02-26T04:06:55.828Z,20.73
2019-02-26T04:09:30.600Z,20.73
2019-02-26T04:12:04.717Z,20.72
2019-02-26T04:14:39.020Z,20.71
2019-02-26T04:17:14.504Z,20.71
2019-02-26T04:19:48.739Z,20.69
2019-02-26T04:22:29.671Z,20.72
2019-02-26T04:25:26.992Z,20.71
2019-02-26T04:28:12.219Z,20.72
2019-02-26T04:31:07.387Z,20.70
2019-02-26T04:34:10.645Z,20.68
2019-02-26T04:37:30.702Z,20.71
2019-02-26T04:40:38.220Z,20.68
2019-02-26T04:43:54.192Z,20.65
2019-02-26T04:46:39.547Z,20.63
2019-02-26T04:49:13.874Z,20.63
2019-02-26T04:51:50.371Z,20.62
2019-02-26T04:54:26.984Z,20.63
2019-02-26T04:56:59.807Z,20.63
2019-02-26T04:59:35.100Z,20.62
2019-02-26T05:02:10.317Z,20.61
2019-02-26T05:04:45.639Z,20.64
2019-02-26T05:07:24.792Z,20.59
2019-02-26T05:10:01.885Z,20.58
2019-02-26T05:12:37.863Z,20.57
2019-02-26T05:15:16.934Z,20.60
2019-02-26T05:17:48.071Z,20.62
2019-02-26T05:20:22.110Z,20.59
2019-02-26T05:23:01.062Z,20.58
2019-02-26T05:25:37.367Z,20.57
2019-02-26T05:28:12.534Z,20.59
2019-02-26T05:30:49.531Z,20.59
2019-02-26T05:33:25.295Z,20.63
2019-02-26T05:36:00.744Z,20.74
2019-02-26T05:38:35.730Z,20.76
2019-02-26T05:41:10.996Z,20.75
2019-02-26T05:43:52.079Z,20.75
2019-02-26T05:46:27.030Z,20.77
2019-02-26T05:49:00.596Z,20.77
2019-02-26T05:51:36.032Z,20.79
2019-02-26T05:54:12.253Z,20.80
2019-02-26T05:56:49.796Z,20.82
2019-02-26T05:59:23.143Z,20.82
2019-02-26T06:01:59.313Z,20.81
2019-02-26T06:04:35.172Z,20.79
2019-02-26T06:07:10.881Z,20.79
2019-02-26T06:09:48.027Z,20.81
2019-02-26T06:12:22.037Z,20.87
2019-02-26T06:15:00.750Z,20.83
2019-02-26T06:17:35.232Z,20.82
2019-02-26T06:20:23.637Z,20.81
2019-02-26T06:22:58.165Z,20.87
2019-02-26T06:25:33.697Z,20.86
2019-02-26T06:28:10.538Z,20.89
2019-02-26T06:30:45.057Z,20.80
2019-02-26T06:33:20.313Z,20.75
2019-02-26T06:35:55.306Z,20.73
2019-02-26T06:38:32.765Z,20.73
2019-02-26T06:41:07.548Z,20.73
2019-02-26T06:43:47.142Z,20.71
2019-02-26T06:46:19.044Z,20.71
2019-02-26T06:48:54.614Z,20.75
2019-02-26T06:51:30.740Z,20.77
2019-02-26T06:54:07.086Z,20.75
2019-02-26T06:56:43.821Z,20.71
2019-02-26T06:59:20.482Z,20.69
2019-02-26T07:01:56.110Z,20.67
2019-02-26T07:04:33.880Z,20.63
2019-02-26T07:07:14.043Z,20.62
2019-02-26T07:09:46.293Z,20.61
2019-02-26T07:12:22.194Z,20.63
2019-02-26T07:14:58.907Z,20.62
2019-02-26T07:17:33.849Z,20.58
2019-02-26T07:20:10.412Z,20.59
2019-02-26T07:22:49.650Z,20.59
2019-02-26T07:25:24.452Z,20.61
2019-02-26T07:28:01.083Z,20.64
2019-02-26T07:30:39.764Z,20.63
2019-02-26T07:33:15.065Z,20.65
2019-02-26T07:35:52.223Z,20.66
2019-02-26T07:38:27.682Z,20.66
2019-02-26T07:41:03.764Z,20.67
2019-02-26T07:43:41.037Z,20.70
2019-02-26T07:46:17.038Z,20.69
2019-02-26T07:48:54.000Z,20.70
2019-02-26T07:51:31.150Z,20.71
2019-02-26T07:54:08.149Z,20.71
2019-02-26T07:56:43.918Z,20.71
2019-02-26T07:59:27.447Z,20.71
2019-02-26T08:01:57.951Z,20.72
2019-02-26T08:04:34.516Z,20.72
2019-02-26T08:07:09.403Z,20.74
2019-02-26T08:09:45.632Z,20.72
2019-02-26T08:12:22.008Z,20.74
2019-02-26T08:15:05.023Z,20.74
2019-02-26T08:17:51.910Z,20.74
2019-02-26T08:20:28.435Z,20.74
2019-02-26T08:23:04.285Z,20.76
2019-02-26T08:25:39.423Z,20.77
2019-02-26T08:28:15.539Z,20.75
2019-02-26T08:30:52.888Z,20.73
2019-02-26T08:33:29.485Z,20.71
2019-02-26T08:36:04.368Z,20.71
2019-02-26T08:38:39.074Z,20.72
2019-02-26T08:41:14.965Z,20.70
2019-02-26T08:43:51.514Z,20.74
2019-02-26T08:46:27.338Z,20.73
2019-02-26T08:49:08.415Z,20.72
2019-02-26T08:51:43.760Z,20.74
2019-02-26T08:54:23.726Z,20.75
2019-02-26T08:56:58.689Z,20.74
2019-02-26T08:59:33.883Z,20.73
2019-02-26T09:02:10.768Z,20.70
2019-02-26T09:04:47.805Z,20.72
2019-02-26T09:07:23.816Z,20.74
2019-02-26T09:10:02.130Z,20.72
2019-02-26T09:12:39.026Z,20.73
2019-02-26T09:15:18.610Z,20.76
2019-02-26T09:17:53.554Z,20.77
2019-02-26T09:20:31.150Z,20.77
2019-02-26T09:23:06.426Z,20.76
2019-02-26T09:25:41.695Z,20.77
2019-02-26T09:28:17.373Z,20.78
2019-02-26T09:30:53.781Z,20.77
2019-02-26T09:33:32.836Z,20.76
2019-02-26T09:36:10.534Z,20.80
2019-02-26T09:38:45.124Z,20.82
2019-02-26T09:41:22.657Z,20.75
2019-02-26T09:44:01.923Z,20.71
2019-02-26T09:46:41.200Z,20.68
2019-02-26T09:49:17.703Z,20.67
2019-02-26T09:51:56.817Z,20.67
2019-02-26T09:54:40.320Z,20.66
2019-02-26T09:57:18.555Z,20.67
2019-02-26T09:59:58.115Z,20.67
2019-02-26T10:02:34.290Z,20.66
2019-02-26T10:05:14.074Z,20.67
2019-02-26T10:07:54.914Z,20.68
2019-02-26T10:10:36.680Z,20.68
2019-02-26T10:13:12.143Z,20.67
2019-02-26T10:15:49.716Z,20.67
2019-02-26T10:18:27.782Z,20.68
2019-02-26T10:21:02.711Z,20.68
2019-02-26T10:23:47.155Z,20.68
2019-02-26T10:26:20.263Z,20.69
2019-02-26T10:29:02.219Z,20.68
2019-02-26T10:31:34.177Z,20.68
2019-02-26T10:34:12.426Z,20.68
2019-02-26T10:36:49.303Z,20.69
2019-02-26T10:39:26.412Z,20.70
2019-02-26T10:42:02.551Z,20.69
2019-02-26T10:44:37.414Z,20.70
2019-02-26T10:47:12.946Z,20.70
2019-02-26T10:49:51.869Z,20.69
2019-02-26T10:52:28.782Z,20.69
2019-02-26T10:55:04.251Z,20.70
2019-02-26T10:57:39.990Z,20.70
2019-02-26T11:00:25.934Z,20.71
2019-02-26T11:03:01.835Z,20.70
2019-02-26T11:05:40.607Z,20.69
2019-02-26T11:08:17.070Z,20.70
2019-02-26T11:10:55.470Z,20.70
2019-02-26T11:13:37.272Z,20.69
2019-02-26T11:16:21.861Z,20.70
2019-02-26T11:18:53.149Z,20.70
2019-02-26T11:21:29.265Z,20.72
2019-02-26T11:24:09.339Z,20.71
2019-02-26T11:26:47.208Z,20.70
2019-02-26T11:29:23.785Z,20.70
2019-02-26T11:32:01.717Z,20.70
2019-02-26T11:34:38.428Z,20.68
2019-02-26T11:37:15.597Z,20.70
2019-02-26T11:39:53.336Z,20.70
2019-02-26T11:42:28.875Z,20.69
2019-02-26T11:45:06.604Z,20.69
2019-02-26T11:47:43.866Z,20.69
2019-02-26T11:50:20.937Z,20.69
2019-02-26T11:52:55.643Z,20.72
2019-02-26T11:55:32.412Z,20.70
2019-02-26T11:58:10.214Z,20.69
2019-02-26T12:00:57.328Z,20.69
2019-02-26T12:06:08.296Z,20.69
2019-02-26T12:08:47.355Z,20.69
2019-02-26T12:11:23.332Z,20.71
2019-02-26T12:13:57.854Z,20.76
2019-02-26T12:16:32.200Z,20.77
2019-02-26T12:19:08.715Z,20.78
2019-02-26T12:21:43.581Z,20.77
2019-02-26T12:24:17.985Z,20.75
2019-02-26T12:26:54.702Z,20.76
2019-02-26T12:29:29.062Z,20.76
2019-02-26T12:32:04.892Z,20.78
2019-02-26T12:34:44.594Z,20.79
2019-02-26T12:37:16.962Z,20.77
2019-02-26T12:39:53.028Z,20.76
2019-02-26T12:42:27.468Z,20.75
2019-02-26T12:45:04.863Z,20.74
2019-02-26T12:47:40.685Z,20.72
2019-02-26T12:50:16.813Z,20.72
2019-02-26T12:52:53.909Z,20.70
2019-02-26T12:55:31.637Z,20.69
2019-02-26T12:58:03.910Z,20.69
2019-02-26T13:00:41.270Z,20.69
2019-02-26T13:03:15.883Z,20.68
2019-02-26T13:05:51.765Z,20.69
2019-02-26T13:08:26.152Z,20.67
2019-02-26T13:11:01.831Z,20.68
2019-02-26T13:13:44.767Z,20.68
2019-02-26T13:16:18.963Z,20.68
2019-02-26T13:18:58.569Z,20.67
2019-02-26T13:21:29.082Z,20.66
2019-02-26T13:24:11.657Z,20.66
2019-02-26T13:26:46.304Z,20.67
2019-02-26T13:29:17.142Z,20.66
2019-02-26T13:31:56.563Z,20.69
2019-02-26T13:34:27.822Z,20.71
2019-02-26T13:37:01.884Z,20.73
2019-02-26T13:39:38.471Z,20.73
2019-02-26T13:42:14.093Z,20.74
2019-02-26T13:44:48.980Z,20.75
2019-02-26T13:47:23.518Z,20.75
2019-02-26T13:49:57.810Z,20.80
2019-02-26T13:52:32.246Z,20.77
2019-02-26T13:55:09.086Z,20.78
2019-02-26T13:57:43.290Z,20.77
2019-02-26T14:00:25.962Z,20.75
2019-02-26T14:02:54.371Z,20.78
2019-02-26T14:05:28.528Z,20.78
2019-02-26T14:08:04.884Z,20.76
2019-02-26T14:10:39.190Z,20.74
2019-02-26T14:13:13.546Z,20.72
2019-02-26T14:15:47.813Z,20.74
2019-02-26T14:18:22.167Z,20.72
2019-02-26T14:20:56.367Z,20.72
2019-02-26T14:23:34.933Z,20.73
2019-02-26T14:26:08.351Z,20.72
2019-02-26T14:28:43.353Z,20.71
2019-02-26T14:31:17.402Z,20.72
2019-02-26T14:33:51.652Z,20.72
2019-02-26T14:36:25.854Z,20.72
2019-02-26T14:38:59.846Z,20.72
2019-02-26T14:41:36.558Z,20.73
2019-02-26T14:44:10.609Z,20.73
2019-02-26T14:46:45.989Z,20.73
2019-02-26T14:49:20.143Z,20.75
2019-02-26T14:51:55.526Z,20.74
2019-02-26T14:54:29.986Z,20.74
2019-02-26T14:57:04.319Z,20.74
2019-02-26T14:59:38.640Z,20.75
2019-02-26T15:02:12.898Z,20.77
2019-02-26T15:04:47.243Z,20.77
2019-02-26T15:07:21.712Z,20.76
2019-02-26T15:09:55.788Z,20.71
2019-02-26T15:12:30.836Z,20.72
2019-02-26T15:15:06.183Z,20.72
2019-02-26T15:17:40.480Z,20.71
2019-02-26T15:20:16.570Z,20.71
2019-02-26T15:22:51.699Z,20.71
2019-02-26T15:25:26.334Z,20.71
2019-02-26T15:28:05.163Z,20.71
2019-02-26T15:30:36.259Z,20.71
2019-02-26T15:33:11.414Z,20.70
2019-02-26T15:35:46.840Z,20.70
2019-02-26T15:38:21.165Z,20.70
2019-02-26T15:40:55.635Z,20.70
2019-02-26T15:43:29.882Z,20.68
2019-02-26T15:46:04.336Z,20.67
2019-02-26T15:48:38.305Z,20.66
2019-02-26T15:51:14.566Z,20.66
2019-02-26T15:53:48.487Z,20.65
2019-02-26T15:56:22.768Z,20.64
2019-02-26T15:58:57.096Z,20.63
2019-02-26T16:01:31.481Z,20.65
2019-02-26T16:04:05.967Z,20.63
2019-02-26T16:06:40.037Z,20.63
2019-02-26T16:09:14.836Z,20.62
2019-02-26T16:11:49.391Z,20.61
2019-02-26T16:14:23.406Z,20.60
2019-02-26T16:16:57.675Z,20.59
2019-02-26T16:19:31.860Z,20.58
2019-02-26T16:22:05.996Z,20.59
2019-02-26T16:24:41.324Z,20.57
2019-02-26T16:27:15.636Z,20.50
2019-02-26T16:29:49.968Z,20.53
2019-02-26T16:32:24.293Z,20.54
2019-02-26T16:34:59.897Z,20.55
2019-02-26T16:37:34.248Z,20.59
2019-02-26T16:40:08.708Z,20.58
2019-02-26T16:42:44.617Z,20.60
2019-02-26T16:45:21.254Z,20.57
2019-02-26T16:47:57.263Z,20.56
2019-02-26T16:50:31.639Z,20.55
2019-02-26T16:53:05.846Z,20.54
2019-02-26T16:55:40.068Z,20.56
2019-02-26T16:58:14.095Z,20.59
2019-02-26T17:00:48.885Z,20.62
2019-02-26T17:03:23.507Z,20.62
2019-02-26T17:05:57.900Z,20.62
2019-02-26T17:08:32.291Z,20.63
2019-02-26T17:11:06.640Z,20.60
2019-02-26T17:13:43.440Z,20.59
2019-02-26T17:16:17.518Z,20.57
2019-02-26T17:18:51.713Z,20.56
2019-02-26T17:21:30.540Z,20.56
2019-02-26T17:24:01.438Z,20.55
2019-02-26T17:26:35.521Z,20.54
2019-02-26T17:29:09.666Z,20.54
2019-02-26T17:31:44.051Z,20.54
2019-02-26T17:34:20.654Z,20.55
2019-02-26T17:36:53.953Z,20.53
2019-02-26T17:39:28.742Z,20.53
2019-02-26T17:42:03.135Z,20.50
2019-02-26T17:44:37.243Z,20.49
2019-02-26T17:47:11.377Z,20.50
2019-02-26T17:49:45.419Z,20.52
2019-02-26T17:52:19.660Z,20.56
2019-02-26T17:54:54.037Z,20.56
2019-02-26T17:57:28.402Z,20.49
2019-02-26T18:00:02.844Z,20.49
2019-02-26T18:02:37.275Z,20.48
2019-02-26T18:05:11.726Z,20.50
2019-02-26T18:07:45.829Z,20.50
2019-02-26T18:10:21.070Z,20.49
2019-02-26T18:12:56.052Z,20.45
2019-02-26T18:15:30.412Z,20.44
2019-02-26T18:18:05.279Z,20.42
2019-02-26T18:20:40.741Z,20.42
2019-02-26T18:23:16.084Z,20.42
2019-02-26T18:25:50.474Z,20.42
2019-02-26T18:28:24.760Z,20.42
2019-02-26T18:30:59.591Z,20.44
2019-02-26T18:33:36.174Z,20.45
2019-02-26T18:36:09.983Z,20.48
2019-02-26T18:38:48.349Z,20.48
2019-02-26T18:41:20.294Z,20.50
2019-02-26T18:43:54.693Z,20.49
2019-02-26T18:46:29.087Z,20.50
2019-02-26T18:49:05.095Z,20.56
2019-02-26T18:51:39.303Z,20.69
2019-02-26T18:54:13.566Z,20.74
2019-02-26T18:56:47.747Z,20.65
2019-02-26T18:59:22.199Z,20.57
2019-02-26T19:01:56.350Z,20.52
2019-02-26T19:04:30.693Z,20.54
2019-02-26T19:07:05.297Z,20.54
2019-02-26T19:09:42.703Z,20.50
2019-02-26T19:12:18.561Z,20.49
2019-02-26T19:14:53.090Z,20.47
2019-02-26T19:17:27.401Z,20.44
2019-02-26T19:20:02.005Z,20.44
2019-02-26T19:22:37.634Z,20.44
2019-02-26T19:25:12.149Z,20.42
2019-02-26T19:27:46.551Z,20.41
2019-02-26T19:30:21.187Z,20.41
2019-02-26T19:32:55.779Z,20.43
2019-02-26T19:35:30.127Z,20.40
2019-02-26T19:38:04.247Z,20.38
2019-02-26T19:40:41.510Z,20.33
2019-02-26T19:43:16.535Z,20.30
2019-02-26T19:45:50.475Z,20.29
2019-02-26T19:48:24.461Z,20.30
2019-02-26T19:50:58.858Z,20.30
2019-02-26T19:53:34.725Z,20.27
2019-02-26T19:56:09.483Z,20.26
2019-02-26T19:58:43.945Z,20.25
2019-02-26T20:01:18.758Z,20.27
2019-02-26T20:03:53.018Z,20.24
2019-02-26T20:06:27.296Z,20.26
2019-02-26T20:09:05.842Z,20.26
2019-02-26T20:11:39.637Z,20.27
2019-02-26T20:14:14.824Z,20.27
2019-02-26T20:16:49.773Z,20.26
2019-02-26T20:19:24.304Z,20.24
2019-02-26T20:21:58.923Z,20.20
2019-02-26T20:24:33.154Z,20.20
2019-02-26T20:27:07.422Z,20.22
2019-02-26T20:29:41.839Z,20.18
2019-02-26T20:32:16.169Z,20.21
2019-02-26T20:34:50.287Z,20.22
2019-02-26T20:37:24.989Z,20.21
2019-02-26T20:39:59.324Z,20.21
2019-02-26T20:42:33.823Z,20.19
2019-02-26T20:45:08.734Z,20.19
2019-02-26T20:47:43.189Z,20.19
2019-02-26T20:50:20.072Z,20.18
2019-02-26T20:52:53.572Z,20.19
2019-02-26T20:55:27.764Z,20.19
2019-02-26T20:58:01.920Z,20.18
2019-02-26T21:00:42.248Z,20.18
2019-02-26T21:03:12.169Z,20.15
2019-02-26T21:05:46.238Z,20.10
2019-02-26T21:08:20.373Z,20.16
2019-02-26T21:10:54.589Z,20.12
2019-02-26T21:13:28.997Z,20.11
2019-02-26T21:16:04.231Z,20.06
2019-02-26T21:18:39.408Z,20.07
2019-02-26T21:21:14.070Z,20.07
2019-02-26T21:23:48.555Z,20.07
2019-02-26T21:26:22.684Z,20.10
2019-02-26T21:28:57.061Z,20.07
2019-02-26T21:31:31.234Z,20.05
2019-02-26T21:34:05.478Z,20.05
2019-02-26T21:36:39.850Z,20.01
2019-02-26T21:39:14.090Z,20.02
2019-02-26T21:41:49.201Z,20.03
2019-02-26T21:44:23.584Z,20.03
2019-02-26T21:46:57.657Z,20.00
2019-02-26T21:49:31.952Z,19.98
2019-02-26T21:52:08.743Z,20.01
2019-02-26T21:54:42.886Z,20.01
2019-02-26T21:57:16.945Z,20.01
2019-02-26T21:59:51.173Z,20.00
2019-02-26T22:02:25.363Z,19.99
2019-02-26T22:04:59.382Z,19.97
2019-02-26T22:07:33.446Z,19.98
2019-02-26T22:10:07.903Z,19.96
2019-02-26T22:12:42.328Z,19.97
2019-02-26T22:15:17.047Z,19.97
2019-02-26T22:17:51.444Z,19.95
2019-02-26T22:20:35.907Z,19.93
2019-02-26T22:23:01.736Z,19.96
2019-02-26T22:25:35.737Z,19.93
2019-02-26T22:28:10.494Z,19.94
2019-02-26T22:30:44.842Z,19.96
2019-02-26T22:33:19.013Z,19.94
2019-02-26T22:35:53.291Z,19.90
2019-02-26T22:38:27.419Z,19.91
2019-02-26T22:41:02.324Z,19.90
2019-02-26T22:43:36.627Z,19.86
2019-02-26T22:46:10.711Z,19.85
2019-02-26T22:48:46.852Z,19.85
2019-02-26T22:51:20.926Z,19.86
2019-02-26T22:53:55.239Z,19.87
2019-02-26T22:56:29.156Z,19.87
2019-02-26T22:59:07.765Z,19.83
2019-02-26T23:01:48.062Z,19.84
2019-02-26T23:04:22.418Z,19.87
2019-02-26T23:06:56.396Z,19.85
2019-02-26T23:09:32.098Z,19.85
2019-02-26T23:12:06.711Z,19.83
2019-02-26T23:14:41.471Z,19.84
2019-02-26T23:17:16.419Z,19.83
2019-02-26T23:19:50.822Z,19.82
2019-02-26T23:22:25.038Z,19.80
2019-02-26T23:25:00.985Z,19.78
2019-02-26T23:27:37.513Z,19.79
2019-02-26T23:30:13.148Z,19.77
2019-02-26T23:32:47.273Z,19.76
2019-02-26T23:35:21.450Z,19.75
2019-02-26T23:37:57.152Z,19.76
2019-02-26T23:40:31.604Z,19.76
2019-02-26T23:43:05.910Z,19.75
2019-02-26T23:45:40.219Z,19.73
2019-02-26T23:48:14.452Z,19.73
2019-02-26T23:50:48.826Z,19.74
2019-02-26T23:53:22.937Z,19.74
2019-02-26T23:55:57.382Z,19.74
2019-02-26T23:58:31.704Z,19.74
